createdAt,value
2023-05-15T00:00:27.724Z,99.90
2023-05-15T00:02:57.104Z,99.90
2023-05-15T00:05:24.645Z,99.90
2023-05-15T00:07:52.077Z,99.90
2023-05-15T00:10:19.374Z,99.90
2023-05-15T00:12:46.616Z,99.90
2023-05-15T00:15:13.912Z,99.90
2023-05-15T00:17:41.227Z,99.90
2023-05-15T00:20:09.723Z,99.90
2023-05-15T00:22:37.018Z,99.90
2023-05-15T00:25:04.588Z,99.90
2023-05-15T00:27:31.813Z,99.90
2023-05-15T00:29:59.055Z,99.90
2023-05-15T00:32:26.354Z,99.90
2023-05-15T00:34:53.584Z,99.90
2023-05-15T00:37:20.851Z,99.90
2023-05-15T00:39:48.385Z,99.90
2023-05-15T00:42:17.365Z,99.90
2023-05-15T00:44:45.704Z,99.90
2023-05-15T00:47:14.280Z,99.90
2023-05-15T00:49:42.801Z,99.90
2023-05-15T00:52:10.850Z,99.90
2023-05-15T00:54:38.093Z,99.90
2023-05-15T00:57:07.139Z,99.90
2023-05-15T00:59:35.030Z,99.90
2023-05-15T01:02:02.425Z,99.90
2023-05-15T01:04:29.975Z,99.90
2023-05-15T01:06:57.312Z,99.90
2023-05-15T01:09:25.534Z,99.90
2023-05-15T01:11:55.068Z,99.90
2023-05-15T01:14:22.670Z,99.90
2023-05-15T01:16:50.019Z,99.90
2023-05-15T01:19:17.729Z,99.90
2023-05-15T01:22:01.025Z,99.90
2023-05-15T01:24:38.015Z,99.90
2023-05-15T01:27:34.655Z,99.90
2023-05-15T01:30:12.560Z,99.90
2023-05-15T01:33:04.435Z,99.90
2023-05-15T01:35:48.872Z,99.90
2023-05-15T01:38:42.491Z,99.90
2023-05-15T01:41:14.496Z,99.90
2023-05-15T01:43:45.332Z,99.90
2023-05-15T01:46:19.970Z,99.90
2023-05-15T01:48:49.704Z,99.90
2023-05-15T01:51:18.896Z,99.90
2023-05-15T01:53:47.601Z,99.90
2023-05-15T01:56:16.213Z,99.90
2023-05-15T01:58:44.425Z,99.90
2023-05-15T02:01:13.146Z,99.90
2023-05-15T02:03:41.303Z,99.90
2023-05-15T02:06:09.569Z,99.90
2023-05-15T02:08:37.364Z,99.90
2023-05-15T02:11:05.552Z,99.90
2023-05-15T02:13:33.949Z,99.90
2023-05-15T02:16:01.438Z,99.90
2023-05-15T02:18:29.114Z,99.90
2023-05-15T02:21:00.950Z,99.90
2023-05-15T02:23:28.508Z,99.90
2023-05-15T02:26:33.992Z,99.90
2023-05-15T02:29:20.132Z,99.90
2023-05-15T02:32:05.801Z,99.90
2023-05-15T02:34:45.635Z,99.90
2023-05-15T02:37:18.284Z,99.90
2023-05-15T02:39:46.624Z,99.90
2023-05-15T02:42:15.698Z,99.90
2023-05-15T02:44:44.125Z,99.90
2023-05-15T02:47:11.861Z,99.90
2023-05-15T02:49:39.995Z,99.90
2023-05-15T02:52:07.381Z,99.90
2023-05-15T02:54:34.678Z,99.90
2023-05-15T02:57:01.853Z,99.90
2023-05-15T02:59:29.257Z,99.90
2023-05-15T03:01:56.432Z,99.90
2023-05-15T03:04:23.752Z,99.90
2023-05-15T03:06:51.050Z,99.90
2023-05-15T03:09:18.261Z,99.90
2023-05-15T03:11:45.460Z,99.90
2023-05-15T03:14:12.752Z,99.90
2023-05-15T03:16:40.037Z,99.90
2023-05-15T03:19:07.422Z,99.90
2023-05-15T03:21:35.067Z,99.90
2023-05-15T03:24:02.424Z,99.90
2023-05-15T03:26:29.662Z,99.90
2023-05-15T03:28:58.205Z,99.90
2023-05-15T03:31:25.591Z,99.90
2023-05-15T03:33:53.109Z,99.90
2023-05-15T03:36:20.352Z,99.90
2023-05-15T03:38:47.577Z,99.90
2023-05-15T03:41:14.834Z,99.90
2023-05-15T03:43:42.095Z,99.90
2023-05-15T03:46:09.357Z,99.90
2023-05-15T03:48:36.610Z,99.90
2023-05-15T03:51:06.540Z,99.90
2023-05-15T03:53:33.863Z,99.90
2023-05-15T03:56:01.126Z,99.90
2023-05-15T03:58:28.311Z,99.90
2023-05-15T04:00:55.574Z,99.90
2023-05-15T04:03:22.936Z,99.90
2023-05-15T04:05:51.914Z,99.90
2023-05-15T04:08:19.119Z,99.90
2023-05-15T04:10:46.381Z,99.90
2023-05-15T04:13:13.635Z,99.90
2023-05-15T04:15:41.009Z,99.90
2023-05-15T04:18:11.521Z,99.90
2023-05-15T04:20:44.539Z,99.90
2023-05-15T04:23:14.473Z,99.90
2023-05-15T04:25:46.852Z,99.90
2023-05-15T04:28:16.056Z,99.90
2023-05-15T04:30:44.783Z,99.90
2023-05-15T04:33:22.776Z,99.90
2023-05-15T04:35:51.053Z,99.90
2023-05-15T04:38:18.647Z,99.90
2023-05-15T04:40:46.675Z,99.90
2023-05-15T04:43:13.886Z,99.90
2023-05-15T04:45:41.357Z,99.90
2023-05-15T04:48:08.817Z,99.90
2023-05-15T04:50:36.857Z,99.90
2023-05-15T04:53:04.267Z,99.90
2023-05-15T04:55:32.395Z,99.90
2023-05-15T04:58:00.906Z,99.90
2023-05-15T05:00:29.032Z,99.90
2023-05-15T05:02:56.519Z,99.90
2023-05-15T05:05:24.104Z,99.90
2023-05-15T05:07:52.048Z,99.90
2023-05-15T05:10:19.384Z,99.90
2023-05-15T05:12:58.236Z,99.90
2023-05-15T05:15:28.468Z,99.90
2023-05-15T05:17:55.878Z,99.90
2023-05-15T05:20:23.215Z,99.90
2023-05-15T05:22:50.657Z,99.90
2023-05-15T05:25:18.043Z,99.90
2023-05-15T05:27:45.406Z,99.90
2023-05-15T05:30:12.976Z,99.90
2023-05-15T05:32:40.256Z,99.90
2023-05-15T05:35:07.963Z,99.90
2023-05-15T05:37:35.396Z,99.90
2023-05-15T05:40:02.782Z,99.90
2023-05-15T05:42:30.033Z,99.90
2023-05-15T05:44:57.381Z,99.90
2023-05-15T05:47:24.675Z,99.90
2023-05-15T05:49:52.510Z,99.90
2023-05-15T05:52:19.816Z,99.90
2023-05-15T05:54:48.151Z,99.90
2023-05-15T05:57:15.608Z,99.90
2023-05-15T05:59:43.029Z,99.90
2023-05-15T06:02:11.310Z,99.90
2023-05-15T06:04:38.707Z,99.90
2023-05-15T06:07:05.997Z,99.90
2023-05-15T06:09:33.255Z,99.90
2023-05-15T06:12:00.903Z,99.90
2023-05-15T06:14:28.245Z,99.90
2023-05-15T06:16:55.513Z,99.90
2023-05-15T06:19:22.970Z,99.90
2023-05-15T06:21:50.332Z,99.90
2023-05-15T06:24:17.610Z,99.90
2023-05-15T06:26:45.154Z,99.90
2023-05-15T06:29:12.365Z,99.90
2023-05-15T06:31:39.623Z,99.90
2023-05-15T06:34:06.955Z,99.90
2023-05-15T06:36:34.469Z,99.90
2023-05-15T06:39:01.764Z,99.90
2023-05-15T06:41:29.179Z,99.90
2023-05-15T06:43:56.476Z,99.90
2023-05-15T06:46:23.911Z,99.90
2023-05-15T06:48:51.209Z,99.90
2023-05-15T06:51:18.422Z,99.90
2023-05-15T06:53:45.598Z,99.90
2023-05-15T06:56:12.840Z,99.90
2023-05-15T06:58:40.137Z,99.90
2023-05-15T07:01:09.492Z,99.90
2023-05-15T07:03:36.726Z,99.90
2023-05-15T07:06:04.228Z,99.90
2023-05-15T07:08:31.455Z,99.90
2023-05-15T07:10:58.697Z,99.90
2023-05-15T07:13:25.923Z,99.90
2023-05-15T07:15:53.275Z,99.90
2023-05-15T07:18:20.539Z,99.90
2023-05-15T07:20:48.004Z,99.90
2023-05-15T07:23:16.169Z,99.90
2023-05-15T07:25:44.189Z,99.90
2023-05-15T07:28:12.493Z,99.90
2023-05-15T07:30:39.756Z,99.90
2023-05-15T07:33:07.202Z,99.90
2023-05-15T07:35:34.483Z,99.90
2023-05-15T07:38:01.954Z,99.90
2023-05-15T07:40:29.261Z,99.90
2023-05-15T07:42:56.675Z,99.90
2023-05-15T07:45:24.123Z,99.90
2023-05-15T07:47:51.828Z,99.90
2023-05-15T07:50:19.102Z,99.90
2023-05-15T07:52:46.529Z,99.90
2023-05-15T07:55:13.856Z,99.90
2023-05-15T07:57:41.148Z,99.90
2023-05-15T08:00:12.537Z,99.90
2023-05-15T08:02:40.765Z,99.90
2023-05-15T08:05:08.424Z,99.90
2023-05-15T08:07:35.982Z,99.90
2023-05-15T08:10:06.154Z,99.90
2023-05-15T08:12:34.004Z,99.90
2023-05-15T08:15:01.485Z,99.90
2023-05-15T08:17:28.839Z,99.90
2023-05-15T08:19:56.535Z,99.90
2023-05-15T08:22:23.786Z,99.90
2023-05-15T08:24:51.048Z,99.90
2023-05-15T08:27:18.332Z,99.90
2023-05-15T08:29:45.993Z,99.90
2023-05-15T08:32:13.402Z,99.90
2023-05-15T08:34:40.718Z,99.90
2023-05-15T08:37:07.976Z,99.90
2023-05-15T08:39:35.288Z,99.90
2023-05-15T08:42:19.876Z,99.90
2023-05-15T08:44:48.001Z,99.90
2023-05-15T08:47:15.962Z,99.90
2023-05-15T08:50:01.929Z,99.90
2023-05-15T08:52:29.333Z,99.90
2023-05-15T08:54:57.874Z,99.90
2023-05-15T08:57:26.900Z,99.90
2023-05-15T08:59:55.175Z,99.90
2023-05-15T09:02:25.392Z,99.90
2023-05-15T09:04:52.810Z,99.90
2023-05-15T09:07:21.026Z,99.90
2023-05-15T09:09:48.648Z,99.90
2023-05-15T09:12:16.452Z,99.90
2023-05-15T09:14:44.293Z,99.90
2023-05-15T09:17:11.915Z,99.90
2023-05-15T09:19:40.449Z,99.90
2023-05-15T09:22:23.270Z,99.90
2023-05-15T09:24:53.159Z,99.90
2023-05-15T09:27:20.759Z,99.90
2023-05-15T09:29:48.825Z,99.90
2023-05-15T09:32:18.564Z,99.90
2023-05-15T09:34:46.408Z,99.90
2023-05-15T09:37:30.306Z,99.90
2023-05-15T09:40:11.059Z,99.90
2023-05-15T09:42:39.457Z,99.90
2023-05-15T09:45:17.513Z,99.90
2023-05-15T09:47:45.800Z,99.90
2023-05-15T09:50:13.349Z,99.90
2023-05-15T09:52:40.715Z,99.90
2023-05-15T09:55:09.677Z,99.90
2023-05-15T09:57:37.975Z,99.90
2023-05-15T10:00:11.762Z,99.90
2023-05-15T10:02:41.558Z,99.90
2023-05-15T10:05:11.569Z,99.90
2023-05-15T10:07:39.220Z,99.90
2023-05-15T10:10:06.987Z,99.90
2023-05-15T10:12:36.595Z,99.90
2023-05-15T10:15:05.263Z,99.90
2023-05-15T10:17:36.157Z,99.90
2023-05-15T10:20:07.143Z,99.90
2023-05-15T10:22:37.840Z,99.90
2023-05-15T10:25:26.304Z,99.90
2023-05-15T10:27:54.743Z,99.90
2023-05-15T10:30:24.294Z,99.90
2023-05-15T10:32:52.019Z,99.90
2023-05-15T10:35:19.537Z,99.90
2023-05-15T10:37:48.579Z,99.90
2023-05-15T10:40:17.289Z,99.90
2023-05-15T10:42:47.019Z,99.90
2023-05-15T10:45:14.865Z,99.90
2023-05-15T10:47:44.568Z,99.90
2023-05-15T10:50:13.477Z,99.90
2023-05-15T10:52:41.628Z,99.90
2023-05-15T10:55:13.886Z,99.90
2023-05-15T10:57:41.463Z,99.90
2023-05-15T11:00:24.708Z,99.90
2023-05-15T11:02:55.313Z,99.90
2023-05-15T11:05:23.615Z,99.90
2023-05-15T11:08:29.762Z,99.90
2023-05-15T11:10:57.221Z,99.90
2023-05-15T11:13:24.454Z,99.90
2023-05-15T11:15:51.877Z,99.90
2023-05-15T11:18:20.290Z,99.90
2023-05-15T11:20:51.873Z,99.90
2023-05-15T11:23:23.316Z,99.90
2023-05-15T11:25:57.012Z,99.90
2023-05-15T11:28:25.872Z,99.90
2023-05-15T11:30:59.339Z,99.90
2023-05-15T11:33:29.964Z,99.90
2023-05-15T11:35:59.085Z,99.90
2023-05-15T11:38:27.227Z,99.90
2023-05-15T11:41:03.567Z,99.90
2023-05-15T11:43:32.770Z,99.80
2023-05-15T11:46:08.468Z,99.70
2023-05-15T11:48:41.760Z,99.00
2023-05-15T11:51:26.375Z,98.70
2023-05-15T11:53:55.282Z,96.00
2023-05-15T11:56:28.502Z,93.60
2023-05-15T11:58:57.874Z,92.50
2023-05-15T12:01:25.694Z,93.70
2023-05-15T12:03:54.344Z,94.10
2023-05-15T12:06:22.929Z,93.90
2023-05-15T12:08:53.852Z,94.80
2023-05-15T12:11:24.900Z,95.20
2023-05-15T12:13:55.461Z,95.20
2023-05-15T12:16:26.976Z,95.40
2023-05-15T12:18:56.461Z,94.20
2023-05-15T12:21:23.762Z,91.90
2023-05-15T12:24:07.030Z,92.20
2023-05-15T12:26:36.129Z,92.00
2023-05-15T12:29:04.342Z,90.90
2023-05-15T12:31:35.579Z,91.00
2023-05-15T12:34:03.418Z,90.50
2023-05-15T12:36:31.099Z,90.50
2023-05-15T12:39:04.490Z,90.30
2023-05-15T12:41:31.939Z,90.70
2023-05-15T12:43:59.585Z,91.70
2023-05-15T12:46:31.679Z,91.80
2023-05-15T12:48:59.780Z,89.50
2023-05-15T12:51:29.693Z,89.80
2023-05-15T12:53:58.284Z,90.20
2023-05-15T12:56:26.341Z,90.50
2023-05-15T12:58:54.657Z,90.70
2023-05-15T13:01:22.225Z,90.40
2023-05-15T13:03:50.008Z,87.50
2023-05-15T13:06:17.428Z,86.80
2023-05-15T13:08:45.860Z,86.40
2023-05-15T13:11:18.166Z,85.50
2023-05-15T13:13:47.969Z,85.70
2023-05-15T13:16:24.552Z,83.30
2023-05-15T13:18:53.113Z,82.90
2023-05-15T13:21:20.382Z,83.20
2023-05-15T13:23:47.753Z,83.10
2023-05-15T13:26:15.199Z,83.80
2023-05-15T13:28:42.492Z,82.80
2023-05-15T13:31:09.948Z,82.80
2023-05-15T13:33:37.554Z,83.60
2023-05-15T13:36:05.240Z,83.20
2023-05-15T13:38:33.337Z,80.10
2023-05-15T13:41:00.704Z,78.10
2023-05-15T13:43:27.960Z,78.20
2023-05-15T13:45:55.389Z,78.20
2023-05-15T13:48:22.811Z,78.50
2023-05-15T13:50:50.064Z,79.60
2023-05-15T13:53:17.298Z,77.20
2023-05-15T13:55:45.841Z,78.10
2023-05-15T13:58:13.678Z,77.30
2023-05-15T14:00:43.176Z,77.60
2023-05-15T14:03:12.712Z,74.70
2023-05-15T14:05:42.344Z,73.90
2023-05-15T14:08:09.874Z,73.10
2023-05-15T14:10:37.665Z,74.20
2023-05-15T14:13:05.035Z,74.70
2023-05-15T14:15:32.288Z,73.50
2023-05-15T14:17:59.566Z,74.10
2023-05-15T14:20:27.409Z,74.20
2023-05-15T14:22:54.858Z,75.00
2023-05-15T14:25:22.376Z,75.50
2023-05-15T14:27:49.701Z,76.20
2023-05-15T14:30:16.931Z,76.60
2023-05-15T14:32:44.207Z,78.40
2023-05-15T14:35:11.449Z,78.00
2023-05-15T14:37:38.853Z,78.50
2023-05-15T14:40:07.979Z,79.10
2023-05-15T14:42:35.318Z,79.10
2023-05-15T14:45:02.764Z,79.00
2023-05-15T14:47:30.455Z,79.30
2023-05-15T14:49:57.716Z,80.10
2023-05-15T14:52:24.984Z,80.40
2023-05-15T14:55:04.948Z,79.80
2023-05-15T14:57:35.782Z,79.40
2023-05-15T15:00:05.876Z,79.70
2023-05-15T15:02:48.676Z,79.20
2023-05-15T15:05:16.089Z,79.00
2023-05-15T15:08:04.697Z,78.60
2023-05-15T15:10:37.028Z,76.20
2023-05-15T15:13:06.617Z,74.50
2023-05-15T15:15:35.078Z,75.00
2023-05-15T15:18:02.534Z,74.30
2023-05-15T15:20:29.777Z,73.00
2023-05-15T15:22:57.117Z,73.20
2023-05-15T15:25:24.609Z,72.70
2023-05-15T15:27:52.411Z,72.30
2023-05-15T15:30:19.871Z,70.50
2023-05-15T15:32:47.269Z,71.80
2023-05-15T15:35:14.921Z,72.10
2023-05-15T15:37:42.195Z,72.30
2023-05-15T15:40:09.722Z,72.00
2023-05-15T15:42:36.987Z,72.00
2023-05-15T15:45:04.809Z,72.00
2023-05-15T15:47:32.311Z,72.30
2023-05-15T15:50:00.024Z,72.50
2023-05-15T15:52:27.861Z,72.60
2023-05-15T15:54:55.444Z,73.50
2023-05-15T15:57:23.205Z,73.80
2023-05-15T15:59:50.663Z,72.80
2023-05-15T16:02:18.107Z,75.20
2023-05-15T16:04:45.482Z,78.60
2023-05-15T16:07:12.956Z,78.50
2023-05-15T16:09:40.289Z,80.80
2023-05-15T16:12:07.765Z,80.80
2023-05-15T16:14:35.101Z,82.50
2023-05-15T16:17:05.634Z,83.30
2023-05-15T16:19:37.688Z,83.40
2023-05-15T16:22:05.065Z,87.60
2023-05-15T16:24:32.604Z,90.60
2023-05-15T16:27:00.020Z,92.20
2023-05-15T16:29:28.324Z,93.10
2023-05-15T16:31:57.134Z,92.80
2023-05-15T16:34:25.365Z,93.40
2023-05-15T16:36:52.576Z,96.00
2023-05-15T16:39:19.809Z,95.20
2023-05-15T16:41:47.252Z,95.50
2023-05-15T16:44:15.187Z,97.20
2023-05-15T16:46:42.605Z,97.40
2023-05-15T16:49:10.014Z,97.40
2023-05-15T16:51:37.542Z,98.50
2023-05-15T16:54:05.034Z,98.70
2023-05-15T16:56:32.323Z,99.90
2023-05-15T16:58:59.547Z,99.90
2023-05-15T17:01:26.928Z,99.10
2023-05-15T17:03:54.388Z,99.90
2023-05-15T17:06:21.781Z,99.90
2023-05-15T17:08:49.146Z,99.90
2023-05-15T17:11:16.512Z,99.90
2023-05-15T17:13:43.913Z,99.90
2023-05-15T17:16:11.443Z,99.90
2023-05-15T17:18:39.987Z,99.90
2023-05-15T17:21:07.479Z,99.90
2023-05-15T17:23:35.109Z,99.90
2023-05-15T17:26:02.355Z,99.90
2023-05-15T17:28:29.645Z,99.90
2023-05-15T17:30:56.897Z,99.90
2023-05-15T17:33:24.211Z,99.90
2023-05-15T17:35:52.479Z,99.90
2023-05-15T17:38:19.799Z,99.90
2023-05-15T17:40:48.265Z,99.90
2023-05-15T17:43:15.963Z,99.90
2023-05-15T17:45:43.297Z,99.90
2023-05-15T17:48:10.652Z,99.90
2023-05-15T17:50:39.009Z,99.90
2023-05-15T17:53:06.350Z,99.90
2023-05-15T17:55:33.626Z,99.90
2023-05-15T17:58:00.857Z,99.90
2023-05-15T18:00:28.238Z,99.90
2023-05-15T18:02:56.261Z,99.90
2023-05-15T18:05:24.413Z,99.90
2023-05-15T18:07:59.405Z,99.90
2023-05-15T18:10:26.921Z,99.90
2023-05-15T18:12:56.978Z,99.90
2023-05-15T18:15:24.377Z,99.90
2023-05-15T18:17:51.952Z,99.90
2023-05-15T18:20:19.445Z,99.90
2023-05-15T18:22:47.598Z,99.90
2023-05-15T18:25:15.879Z,99.90
2023-05-15T18:27:43.467Z,99.90
2023-05-15T18:30:11.690Z,99.90
2023-05-15T18:32:39.274Z,99.90
2023-05-15T18:35:09.127Z,99.90
2023-05-15T18:37:36.857Z,99.90
2023-05-15T18:40:05.351Z,99.90
2023-05-15T18:42:33.041Z,99.90
2023-05-15T18:45:00.855Z,99.90
2023-05-15T18:47:28.147Z,99.90
2023-05-15T18:49:55.694Z,99.90
2023-05-15T18:52:26.940Z,99.90
2023-05-15T18:54:54.302Z,99.90
2023-05-15T18:57:21.587Z,99.90
2023-05-15T18:59:48.980Z,99.90
2023-05-15T19:02:16.619Z,99.90
2023-05-15T19:04:44.138Z,99.90
2023-05-15T19:07:12.002Z,99.90
2023-05-15T19:09:40.017Z,99.90
2023-05-15T19:12:08.163Z,99.90
2023-05-15T19:14:39.003Z,99.90
2023-05-15T19:17:06.679Z,99.90
2023-05-15T19:19:34.338Z,99.90
2023-05-15T19:22:01.704Z,99.90
2023-05-15T19:24:29.985Z,99.90
2023-05-15T19:26:58.802Z,99.90
2023-05-15T19:29:26.144Z,99.90
2023-05-15T19:31:56.106Z,99.90
2023-05-15T19:34:23.594Z,99.90
2023-05-15T19:36:51.088Z,99.90
2023-05-15T19:39:18.920Z,99.90
2023-05-15T19:41:50.779Z,99.90
2023-05-15T19:44:18.485Z,99.90
2023-05-15T19:46:48.242Z,99.90
2023-05-15T19:49:15.727Z,99.90
2023-05-15T19:51:43.298Z,99.90
2023-05-15T19:54:11.291Z,99.90
2023-05-15T19:56:39.210Z,99.90
2023-05-15T19:59:06.815Z,99.90
2023-05-15T20:01:34.216Z,99.90
2023-05-15T20:04:02.368Z,99.90
2023-05-15T20:06:29.906Z,99.90
2023-05-15T20:08:57.484Z,99.90
2023-05-15T20:11:24.950Z,99.90
2023-05-15T20:13:52.288Z,99.90
2023-05-15T20:16:21.812Z,99.90
2023-05-15T20:18:54.448Z,99.90
2023-05-15T20:21:22.132Z,99.90
2023-05-15T20:23:49.379Z,99.90
2023-05-15T20:26:16.650Z,99.90
2023-05-15T20:28:45.383Z,99.90
2023-05-15T20:31:12.974Z,99.90
2023-05-15T20:33:43.937Z,99.90
2023-05-15T20:36:11.313Z,99.90
2023-05-15T20:38:38.706Z,99.90
2023-05-15T20:41:06.274Z,99.90
2023-05-15T20:43:33.836Z,99.90
2023-05-15T20:46:01.687Z,99.90
2023-05-15T20:48:29.206Z,99.90
2023-05-15T20:50:56.615Z,99.90
2023-05-15T20:53:24.018Z,99.90
2023-05-15T20:55:51.395Z,99.90
2023-05-15T20:58:18.906Z,99.90
2023-05-15T21:00:46.202Z,99.90
2023-05-15T21:03:13.601Z,99.90
2023-05-15T21:05:40.938Z,99.90
2023-05-15T21:08:08.326Z,99.90
2023-05-15T21:10:35.821Z,99.90
2023-05-15T21:13:03.524Z,99.90
2023-05-15T21:15:30.986Z,99.90
2023-05-15T21:17:58.519Z,99.90
2023-05-15T21:20:27.141Z,99.90
2023-05-15T21:22:54.753Z,99.90
2023-05-15T21:25:22.405Z,99.90
2023-05-15T21:27:49.844Z,99.90
2023-05-15T21:30:17.228Z,99.90
2023-05-15T21:32:44.758Z,99.90
2023-05-15T21:35:12.116Z,99.90
2023-05-15T21:37:39.586Z,99.90
2023-05-15T21:40:07.450Z,99.90
2023-05-15T21:42:34.819Z,99.90
2023-05-15T21:45:02.901Z,99.90
2023-05-15T21:47:31.662Z,99.90
2023-05-15T21:49:59.103Z,99.90
2023-05-15T21:52:26.463Z,99.90
2023-05-15T21:54:53.729Z,99.90
2023-05-15T21:57:21.752Z,99.90
2023-05-15T21:59:49.146Z,99.90
2023-05-15T22:02:16.578Z,99.90
2023-05-15T22:04:44.309Z,99.90
2023-05-15T22:07:14.454Z,99.90
2023-05-15T22:09:44.484Z,99.90
2023-05-15T22:12:11.915Z,99.90
2023-05-15T22:14:46.948Z,99.90
2023-05-15T22:17:27.405Z,99.90
2023-05-15T22:20:07.366Z,99.90
2023-05-15T22:22:35.902Z,99.90
2023-05-15T22:25:03.503Z,99.90
2023-05-15T22:27:30.764Z,99.90
2023-05-15T22:29:58.038Z,99.90
2023-05-15T22:32:26.014Z,99.90
2023-05-15T22:34:53.525Z,99.90
2023-05-15T22:37:21.819Z,99.90
2023-05-15T22:39:49.032Z,99.90
2023-05-15T22:42:16.583Z,99.90
2023-05-15T22:44:43.775Z,99.90
2023-05-15T22:47:11.482Z,99.90
2023-05-15T22:49:38.855Z,99.90
2023-05-15T22:52:07.027Z,99.90
2023-05-15T22:54:34.228Z,99.90
2023-05-15T22:57:01.423Z,99.90
2023-05-15T22:59:28.761Z,99.90
2023-05-15T23:01:56.280Z,99.90
2023-05-15T23:04:23.625Z,99.90
2023-05-15T23:06:51.007Z,99.90
2023-05-15T23:09:18.258Z,99.90
2023-05-15T23:11:45.438Z,99.90
2023-05-15T23:14:15.806Z,99.90
2023-05-15T23:16:44.212Z,99.90
2023-05-15T23:19:11.514Z,99.90
2023-05-15T23:21:39.016Z,99.90
2023-05-15T23:24:06.516Z,99.90
2023-05-15T23:26:33.839Z,99.90
2023-05-15T23:29:01.115Z,99.90
2023-05-15T23:31:28.425Z,99.90
2023-05-15T23:33:55.783Z,99.90
2023-05-15T23:36:23.057Z,99.90
2023-05-15T23:38:50.741Z,99.90
2023-05-15T23:41:17.922Z,99.90
2023-05-15T23:43:45.374Z,99.90
2023-05-15T23:46:12.595Z,99.90
2023-05-15T23:48:39.841Z,99.90
2023-05-15T23:51:07.076Z,99.90
2023-05-15T23:53:34.590Z,99.90
2023-05-15T23:56:02.083Z,99.90
2023-05-15T23:58:29.358Z,99.90
